createdAt,value
2023-05-19T00:07:10.391Z,78
2023-05-19T00:17:10.699Z,78
2023-05-19T00:27:11.693Z,79
2023-05-19T00:37:12.569Z,79
2023-05-19T00:57:13.872Z,80
2023-05-19T01:07:14.460Z,81
2023-05-19T01:17:15.185Z,81
2023-05-19T01:27:16.164Z,82
2023-05-19T01:37:16.532Z,83
2023-05-19T01:47:16.691Z,83
2023-05-19T01:57:17.625Z,83
2023-05-19T02:07:17.809Z,83
2023-05-19T02:17:18.335Z,83
2023-05-19T02:57:21.635Z,85
2023-05-19T03:17:23.340Z,86
2023-05-19T03:37:24.890Z,87
2023-05-19T03:47:25.189Z,87
2023-05-19T03:57:26.214Z,86
2023-05-19T04:07:27.195Z,87
2023-05-19T04:17:28.340Z,87
2023-05-19T04:27:28.856Z,87
2023-05-19T04:37:29.720Z,87
2023-05-19T04:47:30.860Z,87
2023-05-19T04:57:31.019Z,87
2023-05-19T05:07:32.298Z,87
2023-05-19T05:17:32.360Z,86
2023-05-19T05:27:33.160Z,85
2023-05-19T05:37:33.392Z,85
2023-05-19T05:47:33.927Z,84
2023-05-19T05:57:34.354Z,83
2023-05-19T06:07:35.419Z,82
2023-05-19T06:17:35.938Z,81
2023-05-19T06:27:36.896Z,80
2023-05-19T06:37:37.961Z,76
2023-05-19T06:47:38.946Z,75
2023-05-19T06:57:39.873Z,74
2023-05-19T07:07:40.888Z,72
2023-05-19T07:17:41.268Z,71
2023-05-19T07:27:41.451Z,68
2023-05-19T07:47:43.519Z,65
2023-05-19T07:57:43.582Z,64
2023-05-19T08:17:44.794Z,63
2023-05-19T08:27:45.640Z,62
2023-05-19T08:37:45.796Z,62
2023-05-19T08:57:46.943Z,57
2023-05-19T09:17:48.242Z,53
2023-05-19T09:37:49.043Z,52
2023-05-19T09:47:49.949Z,53
2023-05-19T09:57:50.577Z,51
2023-05-19T10:07:51.670Z,51
2023-05-19T10:17:52.036Z,51
2023-05-19T10:27:52.928Z,50
2023-05-19T10:37:53.904Z,49
2023-05-19T10:47:54.401Z,48
2023-05-19T10:57:54.813Z,47
2023-05-19T11:07:55.091Z,47
2023-05-19T11:17:55.415Z,46
2023-05-19T11:27:55.641Z,47
2023-05-19T11:37:56.097Z,47
2023-05-19T11:48:02.306Z,46
2023-05-19T11:58:03.752Z,47
2023-05-19T12:07:57.884Z,45
2023-05-19T12:17:58.863Z,45
2023-05-19T12:27:59.272Z,44
2023-05-19T12:37:59.513Z,44
2023-05-19T12:47:59.903Z,45
2023-05-19T12:58:00.583Z,45
2023-05-19T13:08:01.053Z,45
2023-05-19T13:38:03.561Z,45
2023-05-19T13:58:05.552Z,45
2023-05-19T14:18:07.006Z,45
2023-05-19T14:28:07.578Z,46
2023-05-19T14:38:07.641Z,47
2023-05-19T14:48:08.587Z,45
2023-05-19T14:58:19.929Z,44
2023-05-19T15:18:11.027Z,45
2023-05-19T15:28:12.000Z,46
2023-05-19T15:38:12.704Z,44
2023-05-19T15:58:13.668Z,47
2023-05-19T16:08:14.204Z,46
2023-05-19T16:28:15.557Z,44
2023-05-19T16:38:16.394Z,45
2023-05-19T16:58:17.534Z,45
2023-05-19T17:18:18.310Z,45
2023-05-19T17:28:18.673Z,45
2023-05-19T17:38:19.234Z,46
2023-05-19T17:58:19.662Z,46
2023-05-19T18:08:20.113Z,46
2023-05-19T18:18:20.240Z,47
2023-05-19T18:28:20.865Z,48
2023-05-19T18:38:26.814Z,48
2023-05-19T18:48:27.001Z,49
2023-05-19T18:58:27.230Z,50
2023-05-19T19:18:28.506Z,51
2023-05-19T19:28:28.744Z,52
2023-05-19T19:38:29.238Z,53
2023-05-19T19:58:30.116Z,56
2023-05-19T20:18:31.235Z,57
2023-05-19T20:28:31.835Z,58
2023-05-19T20:38:32.668Z,58
2023-05-19T20:48:33.271Z,60
2023-05-19T20:58:33.528Z,60
2023-05-19T21:08:34.106Z,61
2023-05-19T21:18:34.735Z,61
2023-05-19T21:28:35.209Z,62
2023-05-19T21:38:35.997Z,62
2023-05-19T21:48:36.670Z,62
2023-05-19T21:58:36.874Z,63
2023-05-19T22:08:37.733Z,63
2023-05-19T22:18:38.344Z,63
2023-05-19T22:28:38.506Z,63
2023-05-19T22:38:39.028Z,63
2023-05-19T22:48:40.033Z,63
2023-05-19T22:58:40.663Z,64
2023-05-19T23:08:41.620Z,64
2023-05-19T23:18:42.367Z,65
2023-05-19T23:28:42.946Z,65
2023-05-19T23:38:43.511Z,66
2023-05-19T23:48:44.114Z,67
2023-05-19T23:58:45.068Z,68
